Time;durP1;ratioP1;P1;durP2;ratioP2;P2;SDS_P1;SDS_P2;PMS_P1;PMS_P2;Temp;Humidity;BMP_temperature;BMP_pressure;BME280_temperature;BME280_humidity;BME280_pressure;Samples;Min_cycle;Max_cycle;Signal;HPM_P1;HPM_P2
2023/01/10 00:00:06;;;;;;;17.27;15.63;;;5.50;99.90;;;;;;5071759;28;20496;-70
2023/01/10 00:02:33;;;;;;;18.10;16.50;;;5.50;99.90;;;;;;5071567;28;20465;-70
2023/01/10 00:05:00;;;;;;;17.10;15.80;;;5.50;99.90;;;;;;5068582;28;20472;-71
2023/01/10 00:07:27;;;;;;;22.87;17.50;;;5.60;99.90;;;;;;5073812;28;20464;-70
2023/01/10 00:09:54;;;;;;;16.90;15.30;;;5.60;99.90;;;;;;5067315;28;20458;-70
2023/01/10 00:15:08;;;;;;;18.63;16.90;;;5.60;99.90;;;;;;5064478;28;20544;-70
2023/01/10 00:17:35;;;;;;;18.17;16.60;;;5.60;99.90;;;;;;5067565;28;20520;-71
2023/01/10 00:20:02;;;;;;;21.10;16.17;;;5.60;99.90;;;;;;5067817;28;20466;-70
2023/01/10 00:22:28;;;;;;;17.60;14.90;;;5.70;99.90;;;;;;5070366;28;20477;-71
2023/01/10 00:24:56;;;;;;;16.17;14.60;;;5.70;99.90;;;;;;5071912;28;20518;-71
2023/01/10 00:27:23;;;;;;;16.30;14.63;;;5.70;99.90;;;;;;5074573;28;20463;-70
2023/01/10 00:29:51;;;;;;;16.70;15.40;;;5.70;99.90;;;;;;5069709;28;20470;-70
2023/01/10 00:32:19;;;;;;;21.80;14.30;;;5.70;99.90;;;;;;5062523;28;20492;-70
2023/01/10 00:34:46;;;;;;;18.63;15.23;;;5.70;99.90;;;;;;5064957;28;20498;-71
2023/01/10 00:37:13;;;;;;;19.87;14.90;;;5.70;99.90;;;;;;5070175;28;20782;-71
2023/01/10 00:39:40;;;;;;;16.17;14.83;;;5.70;99.90;;;;;;5071438;28;20491;-70
2023/01/10 00:44:53;;;;;;;16.47;15.00;;;5.70;99.90;;;;;;5073222;28;20473;-70
2023/01/10 00:47:21;;;;;;;17.17;15.90;;;5.60;99.90;;;;;;5067817;28;20459;-70
2023/01/10 00:49:49;;;;;;;16.63;15.17;;;5.60;99.90;;;;;;5075775;28;20954;-70
2023/01/10 00:52:16;;;;;;;14.53;13.00;;;5.60;99.90;;;;;;5074640;28;20557;-71
2023/01/10 00:54:43;;;;;;;15.40;13.83;;;5.70;99.90;;;;;;5067192;28;20470;-70
2023/01/10 00:57:10;;;;;;;14.57;13.43;;;5.70;99.90;;;;;;5072149;28;20458;-70
2023/01/10 00:59:37;;;;;;;12.93;11.90;;;5.70;99.90;;;;;;5068262;28;20466;-70
2023/01/10 01:02:04;;;;;;;14.37;12.83;;;5.80;99.90;;;;;;5061709;28;20523;-71
2023/01/10 01:04:33;;;;;;;21.90;12.77;;;5.80;99.90;;;;;;5069058;28;20557;-70
2023/01/10 01:07:00;;;;;;;13.97;12.67;;;5.80;99.90;;;;;;5064680;28;20574;-71
2023/01/10 01:09:29;;;;;;;13.97;12.50;;;5.80;99.90;;;;;;5073092;28;20973;-70
2023/01/10 01:11:56;;;;;;;20.17;13.30;;;5.80;99.90;;;;;;5066032;28;20487;-70
2023/01/10 01:14:23;;;;;;;14.60;12.33;;;5.80;99.90;;;;;;5065817;28;20615;-70
2023/01/10 01:16:50;;;;;;;15.33;12.37;;;5.80;99.90;;;;;;5071854;28;20458;-70
2023/01/10 01:19:17;;;;;;;26.80;13.47;;;5.70;99.90;;;;;;5071946;28;20879;-70
2023/01/10 01:21:47;;;;;;;17.80;12.77;;;5.70;99.90;;;;;;5069804;28;20982;-71
2023/01/10 01:24:14;;;;;;;16.30;12.43;;;5.70;99.90;;;;;;5070533;28;20458;-70
2023/01/10 01:26:42;;;;;;;16.97;12.37;;;5.70;99.90;;;;;;5068741;28;20467;-70
2023/01/10 01:29:09;;;;;;;18.10;12.20;;;5.70;99.90;;;;;;5064950;28;20482;-70
2023/01/10 01:31:36;;;;;;;27.10;13.13;;;5.80;99.90;;;;;;5069283;28;20483;-70
2023/01/10 01:34:03;;;;;;;12.97;11.40;;;5.80;99.90;;;;;;5072275;28;20958;-70
2023/01/10 01:36:30;;;;;;;19.00;11.97;;;5.80;99.90;;;;;;5067056;28;20464;-70
2023/01/10 01:38:59;;;;;;;14.30;11.17;;;5.70;99.90;;;;;;5064818;28;20467;-70
2023/01/10 01:44:15;;;;;;;11.97;10.90;;;5.50;99.90;;;;;;5055230;28;20459;-70
2023/01/10 01:46:43;;;;;;;16.93;12.40;;;5.40;99.90;;;;;;5063974;28;21296;-70
2023/01/10 01:49:15;;;;;;;11.20;10.30;;;5.30;99.90;;;;;;5069188;28;20961;-70
2023/01/10 01:51:44;;;;;;;12.70;10.90;;;5.10;99.90;;;;;;5068674;28;20881;-70
2023/01/10 01:54:14;;;;;;;12.23;10.67;;;5.10;99.90;;;;;;5067562;28;20524;-70
2023/01/10 01:56:45;;;;;;;13.10;11.97;;;5.00;99.90;;;;;;5067180;28;20478;-70
2023/01/10 01:59:16;;;;;;;16.53;11.53;;;4.90;99.90;;;;;;5069458;28;20462;-70
2023/01/10 02:01:46;;;;;;;11.00;10.00;;;4.90;99.90;;;;;;5070687;28;20466;-70
2023/01/10 02:04:18;;;;;;;12.50;11.17;;;4.90;99.90;;;;;;5062779;28;20973;-70
2023/01/10 02:06:46;;;;;;;12.83;11.53;;;4.90;99.90;;;;;;5071043;28;20477;-70
2023/01/10 02:09:21;;;;;;;18.57;11.40;;;4.90;99.90;;;;;;5067865;28;20923;-70
2023/01/10 02:11:49;;;;;;;15.33;10.50;;;5.00;99.90;;;;;;5066964;28;20575;-70
2023/01/10 02:14:17;;;;;;;16.53;10.67;;;5.10;99.90;;;;;;5064285;28;20545;-70
2023/01/10 02:16:44;;;;;;;14.07;11.77;;;5.00;99.90;;;;;;5068706;28;20473;-70
2023/01/10 02:19:21;;;;;;;21.50;11.73;;;5.00;99.90;;;;;;5069679;28;20469;-70
2023/01/10 02:22:17;;;;;;;12.40;10.80;;;5.00;99.90;;;;;;5071541;28;20464;-70
2023/01/10 02:25:15;;;;;;;15.80;10.30;;;4.90;99.90;;;;;;5064540;28;20475;-70
2023/01/10 02:27:57;;;;;;;14.10;10.67;;;4.90;99.90;;;;;;5071193;28;20793;-70
2023/01/10 02:30:52;;;;;;;11.23;9.30;;;4.90;99.90;;;;;;5067047;28;21131;-70
2023/01/10 02:33:26;;;;;;;12.30;9.90;;;4.90;99.90;;;;;;5079309;28;20523;-70
2023/01/10 02:36:08;;;;;;;10.43;9.53;;;4.90;99.90;;;;;;5072935;28;20955;-70
2023/01/10 02:38:51;;;;;;;9.67;8.73;;;4.90;99.90;;;;;;5069365;28;20511;-70
2023/01/10 02:41:27;;;;;;;10.17;9.17;;;4.80;99.90;;;;;;5067641;28;20964;-70
2023/01/10 02:44:00;;;;;;;10.17;9.37;;;4.80;99.90;;;;;;5072128;28;20460;-70
2023/01/10 02:46:30;;;;;;;13.00;10.10;;;4.90;99.90;;;;;;5063784;28;20463;-70
2023/01/10 02:48:58;;;;;;;16.03;9.97;;;4.90;99.90;;;;;;5074430;28;21592;-71
2023/01/10 02:51:27;;;;;;;39.97;10.37;;;5.00;99.90;;;;;;5071790;28;20884;-70
2023/01/10 02:53:57;;;;;;;20.33;9.27;;;5.00;99.90;;;;;;5078366;28;20464;-70
2023/01/10 02:57:16;;;;;;;12.50;9.10;;;5.00;99.90;;;;;;5069439;28;20468;-70
2023/01/10 03:00:16;;;;;;;14.10;9.97;;;4.90;99.90;;;;;;5067040;28;20492;-70
2023/01/10 03:02:57;;;;;;;16.77;10.43;;;4.80;99.90;;;;;;5047233;28;20516;-70
2023/01/10 03:05:32;;;;;;;10.90;9.80;;;4.70;99.90;;;;;;5073701;28;20457;-70
2023/01/10 03:08:10;;;;;;;14.87;9.30;;;4.70;99.90;;;;;;5063421;28;20465;-70
2023/01/10 03:10:43;;;;;;;18.33;10.57;;;4.70;99.90;;;;;;5070722;28;20471;-70
2023/01/10 03:13:15;;;;;;;15.93;9.97;;;4.70;99.90;;;;;;5062538;28;20560;-70
2023/01/10 03:15:43;;;;;;;14.40;9.70;;;4.70;99.90;;;;;;5069642;28;20467;-71
2023/01/10 03:18:16;;;;;;;23.63;9.83;;;4.70;99.90;;;;;;5072396;28;20459;-70
2023/01/10 03:20:47;;;;;;;11.07;9.30;;;4.70;99.90;;;;;;5073689;28;20847;-70
2023/01/10 03:23:16;;;;;;;12.03;9.87;;;4.70;99.90;;;;;;5074262;28;20543;-70
2023/01/10 03:25:44;;;;;;;13.30;9.80;;;4.60;99.90;;;;;;5062576;28;20874;-71
2023/01/10 03:28:15;;;;;;;23.57;9.30;;;4.60;99.90;;;;;;5070912;28;20458;-71
2023/01/10 03:30:45;;;;;;;16.73;9.87;;;4.50;99.90;;;;;;5069911;28;20986;-70
2023/01/10 03:33:15;;;;;;;20.13;10.67;;;4.50;99.90;;;;;;5069287;28;20484;-70
2023/01/10 03:35:57;;;;;;;12.80;9.67;;;4.40;99.90;;;;;;5067997;28;20510;-70
2023/01/10 03:38:31;;;;;;;14.20;9.70;;;4.50;99.90;;;;;;5061283;28;20474;-70
2023/01/10 03:41:03;;;;;;;16.10;9.70;;;4.60;99.90;;;;;;5066573;28;20486;-70
2023/01/10 03:46:28;;;;;;;15.50;9.73;;;4.70;99.90;;;;;;5061544;28;20505;-71
2023/01/10 03:48:57;;;;;;;12.43;9.13;;;4.90;99.90;;;;;;5073101;28;20458;-70
2023/01/10 03:51:27;;;;;;;11.33;8.00;;;5.00;99.90;;;;;;5064476;28;20471;-70
2023/01/10 03:53:54;;;;;;;13.03;8.80;;;5.10;99.90;;;;;;5067823;28;20495;-70
2023/01/10 03:56:21;;;;;;;19.43;9.60;;;5.20;99.90;;;;;;5064697;28;20833;-70
2023/01/10 03:58:48;;;;;;;13.60;9.27;;;5.20;99.90;;;;;;5067305;28;20595;-70
2023/01/10 04:01:16;;;;;;;10.87;9.70;;;5.30;99.90;;;;;;5065485;28;21260;-70
2023/01/10 04:03:44;;;;;;;11.27;9.27;;;5.40;99.90;;;;;;5068282;28;20461;-70
2023/01/10 04:06:10;;;;;;;16.63;10.70;;;5.40;99.90;;;;;;5070185;28;20492;-70
2023/01/10 04:08:38;;;;;;;16.43;10.40;;;5.50;99.90;;;;;;5072555;28;20454;-70
2023/01/10 04:11:05;;;;;;;13.23;9.20;;;5.40;99.90;;;;;;5061573;28;20466;-70
2023/01/10 04:13:32;;;;;;;13.17;9.30;;;5.50;99.90;;;;;;5073574;28;20526;-70
2023/01/10 04:16:00;;;;;;;14.10;9.60;;;5.50;99.90;;;;;;5068559;28;20466;-71
2023/01/10 04:18:27;;;;;;;16.53;9.80;;;5.50;99.90;;;;;;5075334;28;20498;-71
2023/01/10 04:20:54;;;;;;;13.90;10.43;;;5.50;99.90;;;;;;5067575;28;20995;-69
2023/01/10 04:23:21;;;;;;;12.73;9.70;;;5.60;99.90;;;;;;5072174;28;20462;-69
2023/01/10 04:25:50;;;;;;;13.50;10.17;;;5.60;99.90;;;;;;5063971;28;20526;-70
2023/01/10 04:28:16;;;;;;;12.20;9.57;;;5.50;99.90;;;;;;5068500;28;20855;-71
2023/01/10 04:30:43;;;;;;;13.00;9.57;;;5.50;99.90;;;;;;5069217;28;20972;-70
2023/01/10 04:33:12;;;;;;;26.33;10.20;;;5.50;99.90;;;;;;5071971;28;20486;-69
2023/01/10 04:35:39;;;;;;;13.43;10.07;;;5.40;99.90;;;;;;5067057;28;20470;-69
2023/01/10 04:38:06;;;;;;;18.40;9.80;;;5.30;99.90;;;;;;5070734;28;20468;-69
2023/01/10 04:40:32;;;;;;;9.80;8.83;;;5.20;99.90;;;;;;5072971;28;20483;-69
2023/01/10 04:43:00;;;;;;;14.53;10.27;;;5.10;99.90;;;;;;5079077;28;21096;-69
2023/01/10 04:45:27;;;;;;;16.60;11.07;;;4.90;99.90;;;;;;5069319;28;20891;-69
2023/01/10 04:47:55;;;;;;;11.53;9.80;;;4.90;99.90;;;;;;5069650;28;20878;-69
2023/01/10 04:50:23;;;;;;;15.27;10.20;;;4.90;99.90;;;;;;5071680;28;20519;-70
2023/01/10 04:52:49;;;;;;;12.80;10.40;;;4.80;99.90;;;;;;5069512;28;20568;-69
2023/01/10 04:55:17;;;;;;;12.63;10.20;;;4.70;99.90;;;;;;5074070;28;20460;-69
2023/01/10 04:57:44;;;;;;;18.63;10.50;;;4.70;99.90;;;;;;5068231;28;20471;-69
2023/01/10 05:00:14;;;;;;;21.20;11.10;;;4.60;99.90;;;;;;5070930;28;20952;-69
2023/01/10 05:02:43;;;;;;;11.40;10.33;;;4.60;99.90;;;;;;5068424;28;20533;-69
2023/01/10 05:05:10;;;;;;;16.23;10.03;;;4.50;99.90;;;;;;5071414;28;20511;-69
2023/01/10 05:07:37;;;;;;;19.40;10.50;;;4.40;99.90;;;;;;5069751;28;20458;-71
2023/01/10 05:10:05;;;;;;;21.97;10.73;;;4.30;99.90;;;;;;5065337;28;20487;-69
2023/01/10 05:12:32;;;;;;;15.10;10.53;;;4.20;99.90;;;;;;5064276;28;21094;-69
2023/01/10 05:14:59;;;;;;;15.50;10.40;;;4.20;99.90;;;;;;5069198;28;20572;-69
2023/01/10 05:17:27;;;;;;;27.33;11.20;;;4.10;99.90;;;;;;5069917;28;20497;-70
2023/01/10 05:19:54;;;;;;;16.60;10.53;;;4.10;99.90;;;;;;5073596;28;20547;-69
2023/01/10 05:22:21;;;;;;;14.57;10.20;;;4.10;99.90;;;;;;5075082;28;20455;-70
2023/01/10 05:24:49;;;;;;;21.27;11.93;;;4.10;99.90;;;;;;5071268;28;20613;-69
2023/01/10 05:27:16;;;;;;;15.50;10.03;;;4.10;99.90;;;;;;5064377;28;20463;-69
2023/01/10 05:29:43;;;;;;;19.20;10.60;;;4.10;99.90;;;;;;5071759;28;20839;-70
2023/01/10 05:32:10;;;;;;;30.13;10.10;;;4.00;99.90;;;;;;5067224;28;20462;-70
2023/01/10 05:34:39;;;;;;;25.03;10.63;;;4.10;99.90;;;;;;5070898;28;20508;-70
2023/01/10 05:37:06;;;;;;;15.33;9.60;;;4.20;99.90;;;;;;5064099;28;20824;-70
2023/01/10 05:39:33;;;;;;;24.93;10.03;;;4.20;99.90;;;;;;5070800;28;20494;-70
2023/01/10 05:42:01;;;;;;;16.57;10.90;;;4.20;99.90;;;;;;5066484;28;20482;-70
2023/01/10 05:44:27;;;;;;;21.80;10.77;;;4.20;99.90;;;;;;5071691;28;21269;-70
2023/01/10 05:46:54;;;;;;;19.43;10.50;;;4.10;99.90;;;;;;5063545;28;20829;-70
2023/01/10 05:49:21;;;;;;;11.00;10.00;;;4.20;99.90;;;;;;5070782;28;21051;-70
2023/01/10 05:51:49;;;;;;;16.03;10.50;;;4.20;99.90;;;;;;5067669;28;20509;-71
2023/01/10 05:54:16;;;;;;;15.40;10.47;;;4.20;99.90;;;;;;5070620;28;20906;-70
2023/01/10 05:56:43;;;;;;;15.80;9.57;;;4.20;99.90;;;;;;5067393;28;20462;-69
2023/01/10 05:59:10;;;;;;;21.23;10.20;;;4.30;99.90;;;;;;5071198;28;20470;-70
2023/01/10 06:01:37;;;;;;;21.53;10.53;;;4.30;99.90;;;;;;5067610;28;20563;-70
2023/01/10 06:04:04;;;;;;;17.30;9.50;;;4.40;99.90;;;;;;5077999;28;20521;-70
2023/01/10 06:06:33;;;;;;;15.60;9.67;;;4.40;99.90;;;;;;5070598;28;21393;-70
2023/01/10 06:09:01;;;;;;;22.20;10.10;;;4.40;99.90;;;;;;5074726;28;20949;-70
2023/01/10 06:11:29;;;;;;;16.13;8.20;;;4.50;99.90;;;;;;5071539;28;20987;-70
2023/01/10 06:13:55;;;;;;;20.80;9.57;;;4.50;99.90;;;;;;5071253;28;20578;-70
2023/01/10 06:16:22;;;;;;;24.57;9.27;;;4.50;99.90;;;;;;5066328;28;20485;-69
2023/01/10 06:18:49;;;;;;;18.10;9.40;;;4.50;99.90;;;;;;5073680;28;20568;-69
2023/01/10 06:21:16;;;;;;;18.23;8.40;;;4.50;99.90;;;;;;5067879;28;20521;-68
2023/01/10 06:23:43;;;;;;;17.00;9.47;;;4.60;99.90;;;;;;5077681;28;20468;-69
2023/01/10 06:26:11;;;;;;;18.83;9.20;;;4.60;99.90;;;;;;5069209;28;20533;-69
2023/01/10 06:28:39;;;;;;;21.13;9.90;;;4.60;99.90;;;;;;5069516;28;20469;-69
2023/01/10 06:31:06;;;;;;;18.53;9.93;;;4.60;99.90;;;;;;5065963;28;20862;-69
2023/01/10 06:33:34;;;;;;;21.33;10.53;;;4.60;99.90;;;;;;5071322;28;20856;-69
2023/01/10 06:36:02;;;;;;;10.40;8.60;;;4.60;99.90;;;;;;5074065;28;20488;-69
2023/01/10 06:38:30;;;;;;;22.20;9.77;;;4.50;99.90;;;;;;5072019;28;20462;-69
2023/01/10 06:40:56;;;;;;;16.83;10.23;;;4.40;99.90;;;;;;5069270;28;20486;-69
2023/01/10 06:43:26;;;;;;;23.43;9.33;;;4.40;99.90;;;;;;5068067;28;21022;-69
2023/01/10 06:45:52;;;;;;;15.23;10.17;;;4.30;99.90;;;;;;5075773;28;20549;-70
2023/01/10 06:48:19;;;;;;;19.83;10.30;;;4.30;99.90;;;;;;5077290;28;20451;-70
2023/01/10 06:50:47;;;;;;;20.73;12.30;;;4.30;99.90;;;;;;5064610;28;20462;-69
2023/01/10 06:53:13;;;;;;;29.17;9.60;;;4.30;99.90;;;;;;5072754;28;20903;-69
2023/01/10 06:55:41;;;;;;;15.37;9.63;;;4.30;99.90;;;;;;5078863;28;20462;-70
2023/01/10 06:58:08;;;;;;;32.00;11.30;;;4.20;99.90;;;;;;5063470;28;20474;-70
2023/01/10 07:00:37;;;;;;;28.87;12.50;;;4.20;99.90;;;;;;5064407;28;20990;-70
2023/01/10 07:03:04;;;;;;;18.37;10.30;;;4.20;99.90;;;;;;5074116;28;20823;-70
2023/01/10 07:05:33;;;;;;;12.33;10.30;;;4.20;99.90;;;;;;5069312;28;20484;-70
2023/01/10 07:08:00;;;;;;;17.00;9.97;;;4.20;99.90;;;;;;5072542;28;21082;-70
2023/01/10 07:10:27;;;;;;;32.17;10.73;;;4.20;99.90;;;;;;5070144;28;20799;-70
2023/01/10 07:12:55;;;;;;;24.23;10.40;;;4.20;99.90;;;;;;5069332;28;20475;-70
2023/01/10 07:15:22;;;;;;;14.77;10.10;;;4.20;99.90;;;;;;5074206;28;20461;-70
2023/01/10 07:17:50;;;;;;;22.37;10.87;;;4.20;99.90;;;;;;5072447;28;20757;-70
2023/01/10 07:20:18;;;;;;;19.17;9.90;;;4.10;99.90;;;;;;5070340;28;20469;-70
2023/01/10 07:22:45;;;;;;;30.53;10.30;;;4.10;99.90;;;;;;5064728;28;20505;-70
2023/01/10 07:25:12;;;;;;;58.77;24.27;;;4.10;99.90;;;;;;5067738;28;20459;-70
2023/01/10 07:27:42;;;;;;;97.87;43.27;;;4.10;99.90;;;;;;5065493;28;20965;-70
2023/01/10 07:30:10;;;;;;;97.63;39.63;;;4.00;99.90;;;;;;5067528;28;20459;-70
2023/01/10 07:32:36;;;;;;;51.37;23.30;;;4.00;99.90;;;;;;5063002;28;20599;-70
2023/01/10 07:35:05;;;;;;;20.47;12.13;;;4.00;99.90;;;;;;5070731;28;20490;-70
2023/01/10 07:37:32;;;;;;;12.00;10.10;;;4.00;99.90;;;;;;5069343;28;20524;-70
2023/01/10 07:39:59;;;;;;;21.97;11.23;;;4.00;99.90;;;;;;5069715;28;20489;-70
2023/01/10 07:42:25;;;;;;;22.80;10.60;;;3.90;99.90;;;;;;5074511;28;20851;-70
2023/01/10 07:44:52;;;;;;;18.70;10.50;;;3.90;99.90;;;;;;5070499;28;20518;-70
2023/01/10 07:47:19;;;;;;;23.77;10.80;;;3.90;99.90;;;;;;5073959;28;20630;-70
2023/01/10 07:49:46;;;;;;;20.20;10.87;;;3.90;99.90;;;;;;5071471;28;20467;-70
2023/01/10 07:52:14;;;;;;;18.17;10.33;;;3.90;99.90;;;;;;5068078;28;20758;-68
2023/01/10 07:54:42;;;;;;;21.63;11.50;;;3.90;99.90;;;;;;5065087;28;20495;-71
2023/01/10 07:57:09;;;;;;;12.67;9.80;;;3.90;99.90;;;;;;5064859;28;20465;-70
2023/01/10 07:59:36;;;;;;;29.97;12.17;;;3.90;99.90;;;;;;5064078;28;20923;-69
2023/01/10 08:02:02;;;;;;;26.30;11.17;;;4.00;99.90;;;;;;5057892;28;20464;-69
2023/01/10 08:04:29;;;;;;;26.30;11.70;;;4.00;99.90;;;;;;5065368;28;20463;-70
2023/01/10 08:06:56;;;;;;;20.33;10.90;;;4.00;99.90;;;;;;5073080;28;21100;-70
2023/01/10 08:09:24;;;;;;;23.87;10.53;;;4.00;99.90;;;;;;5064588;28;20543;-69
2023/01/10 08:11:51;;;;;;;25.37;11.17;;;4.00;99.90;;;;;;5068050;28;20467;-70
2023/01/10 08:14:18;;;;;;;24.67;10.10;;;4.00;99.90;;;;;;5064326;28;20537;-71
2023/01/10 08:16:44;;;;;;;17.13;10.87;;;4.10;99.90;;;;;;5064095;28;20463;-69
2023/01/10 08:19:15;;;;;;;24.80;11.60;;;4.10;99.90;;;;;;5059553;28;20485;-69
2023/01/10 08:21:42;;;;;;;27.27;10.87;;;4.10;99.90;;;;;;5066276;28;20469;-69
2023/01/10 08:24:10;;;;;;;24.30;11.73;;;4.20;99.90;;;;;;5062496;28;20463;-69
2023/01/10 08:26:38;;;;;;;24.67;11.17;;;4.20;99.90;;;;;;5063724;28;20467;-69
2023/01/10 08:29:05;;;;;;;18.10;10.60;;;4.10;99.90;;;;;;5060613;28;20467;-70
2023/01/10 08:31:31;;;;;;;22.20;10.23;;;4.20;99.90;;;;;;5062791;28;21084;-70
2023/01/10 08:33:59;;;;;;;26.07;9.93;;;4.30;99.90;;;;;;5066798;28;20495;-70
2023/01/10 08:36:27;;;;;;;21.30;10.30;;;4.30;99.90;;;;;;5064419;28;20474;-70
2023/01/10 08:38:55;;;;;;;22.03;10.10;;;4.30;99.90;;;;;;5061406;28;20475;-70
2023/01/10 08:41:22;;;;;;;16.30;10.87;;;4.30;99.90;;;;;;5062377;28;22060;-70
2023/01/10 08:43:51;;;;;;;13.23;10.20;;;4.30;99.90;;;;;;5063710;28;20516;-70
2023/01/10 08:46:20;;;;;;;22.10;10.03;;;4.30;99.90;;;;;;5066593;28;20493;-70
2023/01/10 08:48:49;;;;;;;15.30;10.17;;;4.40;99.90;;;;;;5066816;28;20980;-70
2023/01/10 08:51:16;;;;;;;15.07;10.47;;;4.40;99.90;;;;;;5065784;28;20550;-70
2023/01/10 08:53:44;;;;;;;16.20;9.87;;;4.50;99.90;;;;;;5054839;28;20486;-70
2023/01/10 08:56:11;;;;;;;20.43;10.13;;;4.50;99.90;;;;;;5061347;28;20663;-70
2023/01/10 08:58:38;;;;;;;28.60;10.17;;;4.60;99.90;;;;;;5039278;28;20572;-70
2023/01/10 09:01:07;;;;;;;27.37;11.37;;;4.70;99.90;;;;;;5060956;28;20571;-70
2023/01/10 09:03:33;;;;;;;21.20;10.47;;;4.60;99.90;;;;;;5062334;28;20845;-70
2023/01/10 09:06:01;;;;;;;22.33;10.53;;;4.70;99.90;;;;;;5067341;28;20475;-70
2023/01/10 09:08:28;;;;;;;18.33;11.10;;;4.80;99.90;;;;;;5058338;28;20456;-70
2023/01/10 09:10:58;;;;;;;21.70;10.67;;;4.90;99.90;;;;;;5057185;28;20463;-71
2023/01/10 09:13:25;;;;;;;19.27;10.47;;;5.00;99.90;;;;;;5066187;28;20462;-70
2023/01/10 09:15:52;;;;;;;17.60;9.30;;;5.10;99.90;;;;;;5064079;28;20496;-70
2023/01/10 09:18:21;;;;;;;14.20;10.33;;;5.20;99.90;;;;;;5054779;28;20477;-70
2023/01/10 09:20:49;;;;;;;24.47;11.40;;;5.30;99.90;;;;;;5057565;28;20469;-70
2023/01/10 09:23:19;;;;;;;15.80;10.80;;;5.40;99.90;;;;;;5060501;28;20493;-70
2023/01/10 09:25:46;;;;;;;16.20;10.33;;;5.50;99.90;;;;;;5058416;28;20482;-70
2023/01/10 09:28:15;;;;;;;19.50;11.37;;;5.60;99.90;;;;;;5063737;28;20467;-70
2023/01/10 09:30:42;;;;;;;18.17;10.87;;;5.70;99.90;;;;;;5059671;28;20463;-70
2023/01/10 09:33:09;;;;;;;20.33;12.90;;;5.70;99.90;;;;;;5063722;28;20527;-70
2023/01/10 09:35:38;;;;;;;23.40;12.30;;;5.80;99.90;;;;;;5061190;28;20564;-70
2023/01/10 09:38:07;;;;;;;17.67;12.00;;;5.90;99.90;;;;;;5064192;28;20470;-70
2023/01/10 09:40:50;;;;;;;18.20;12.03;;;5.90;99.90;;;;;;5061277;28;20928;-70
2023/01/10 09:43:26;;;;;;;23.47;12.83;;;5.90;99.90;;;;;;5063420;28;20866;-70
2023/01/10 09:45:59;;;;;;;22.93;12.60;;;5.90;99.90;;;;;;5063018;28;20466;-70
2023/01/10 09:48:37;;;;;;;32.77;13.17;;;6.00;99.90;;;;;;5065832;28;20538;-70
2023/01/10 09:51:18;;;;;;;21.60;14.03;;;6.20;99.90;;;;;;5061816;28;20481;-70
2023/01/10 09:53:47;;;;;;;24.83;13.43;;;6.30;99.90;;;;;;5060068;28;20468;-70
2023/01/10 09:56:15;;;;;;;31.03;14.13;;;6.40;99.90;;;;;;5068593;28;20938;-71
2023/01/10 09:58:43;;;;;;;33.07;12.47;;;6.40;99.90;;;;;;5066054;28;20579;-70
2023/01/10 10:01:15;;;;;;;19.23;13.03;;;6.50;99.90;;;;;;5067747;28;20825;-70
2023/01/10 10:03:48;;;;;;;17.67;12.77;;;6.70;99.90;;;;;;5062630;28;20841;-70
2023/01/10 10:06:16;;;;;;;27.17;13.87;;;6.80;99.90;;;;;;5066665;28;20467;-70
2023/01/10 10:08:45;;;;;;;20.47;13.30;;;6.80;99.90;;;;;;5071896;28;20475;-71
2023/01/10 10:11:42;;;;;;;18.90;12.83;;;6.90;99.90;;;;;;5061120;28;20463;-71
2023/01/10 10:14:25;;;;;;;24.87;14.30;;;7.10;99.90;;;;;;5056434;28;20567;-70
2023/01/10 10:17:11;;;;;;;17.07;15.27;;;7.20;99.90;;;;;;5063892;28;20462;-71
2023/01/10 10:19:52;;;;;;;24.93;14.40;;;7.40;99.90;;;;;;5066681;28;20569;-70
2023/01/10 10:22:31;;;;;;;30.70;13.90;;;7.40;99.90;;;;;;5066033;28;20463;-70
2023/01/10 10:25:10;;;;;;;24.23;14.57;;;7.50;99.90;;;;;;5063946;28;20524;-70
2023/01/10 10:27:47;;;;;;;17.97;16.07;;;7.60;99.90;;;;;;5063565;28;20512;-71
2023/01/10 10:30:41;;;;;;;19.93;14.43;;;7.70;99.90;;;;;;5058157;28;20536;-71
2023/01/10 10:33:33;;;;;;;28.13;14.67;;;7.60;99.90;;;;;;5062170;28;20469;-71
2023/01/10 10:36:04;;;;;;;16.47;14.90;;;7.70;99.90;;;;;;5053681;28;20487;-71
2023/01/10 10:38:37;;;;;;;15.20;13.70;;;7.70;99.90;;;;;;5063932;28;20458;-71
2023/01/10 10:41:05;;;;;;;17.13;15.10;;;7.80;99.90;;;;;;5068677;28;20532;-71
2023/01/10 10:43:34;;;;;;;17.20;15.40;;;8.00;99.90;;;;;;5062224;28;20891;-71
2023/01/10 10:46:05;;;;;;;19.57;15.03;;;8.10;99.90;;;;;;5066700;28;20463;-71
2023/01/10 10:48:36;;;;;;;21.67;15.87;;;8.10;99.90;;;;;;5066302;28;20647;-71
2023/01/10 10:51:06;;;;;;;20.80;16.27;;;8.20;99.90;;;;;;5065197;28;20992;-71
2023/01/10 10:53:35;;;;;;;19.90;14.57;;;8.30;99.90;;;;;;5058006;28;20476;-71
2023/01/10 10:56:05;;;;;;;27.83;16.27;;;8.40;99.90;;;;;;5064213;28;20495;-72
2023/01/10 10:58:32;;;;;;;24.50;15.60;;;8.50;99.90;;;;;;5057885;28;20914;-71
2023/01/10 11:01:00;;;;;;;18.30;16.50;;;8.60;99.90;;;;;;5059460;28;20961;-71
2023/01/10 11:03:34;;;;;;;21.13;16.07;;;8.60;99.90;;;;;;5067778;28;20811;-71
2023/01/10 11:06:02;;;;;;;16.83;15.30;;;8.60;99.90;;;;;;5066457;28;20453;-71
2023/01/10 11:08:30;;;;;;;21.17;17.77;;;8.70;99.90;;;;;;5065270;28;20546;-71
2023/01/10 11:11:02;;;;;;;19.60;15.90;;;8.80;99.90;;;;;;5065217;28;20463;-72
2023/01/10 11:13:45;;;;;;;19.27;15.60;;;8.90;99.90;;;;;;5069284;28;20458;-71
2023/01/10 11:16:28;;;;;;;20.97;16.90;;;8.90;99.90;;;;;;5063400;28;20482;-71
2023/01/10 11:19:16;;;;;;;20.67;16.00;;;9.00;99.90;;;;;;5059380;28;20476;-71
2023/01/10 11:21:47;;;;;;;19.83;16.63;;;9.00;99.90;;;;;;5060587;28;20493;-71
2023/01/10 11:24:23;;;;;;;17.33;15.73;;;9.10;99.90;;;;;;5057135;28;20894;-71
2023/01/10 11:26:52;;;;;;;20.40;18.30;;;9.20;99.90;;;;;;5059238;28;20457;-71
2023/01/10 11:29:24;;;;;;;18.90;15.47;;;9.20;99.90;;;;;;5059139;28;20463;-71
2023/01/10 11:31:54;;;;;;;22.43;15.43;;;9.10;99.90;;;;;;5060015;28;20465;-71
2023/01/10 11:34:24;;;;;;;20.03;18.00;;;9.00;99.90;;;;;;5062815;28;20804;-71
2023/01/10 11:37:00;;;;;;;24.50;16.77;;;9.10;99.90;;;;;;5065319;28;20459;-71
2023/01/10 11:39:28;;;;;;;23.90;15.67;;;9.30;99.90;;;;;;5055971;28;20559;-71
2023/01/10 11:41:58;;;;;;;19.73;15.43;;;9.40;99.90;;;;;;5065759;28;20498;-71
2023/01/10 11:44:27;;;;;;;20.13;15.73;;;9.40;99.90;;;;;;5058650;28;20473;-71
2023/01/10 11:46:56;;;;;;;20.03;16.47;;;9.40;99.90;;;;;;5062712;28;21242;-71
2023/01/10 11:49:30;;;;;;;18.27;15.67;;;9.50;99.90;;;;;;5058521;28;20543;-71
2023/01/10 11:52:03;;;;;;;20.00;17.10;;;9.70;99.90;;;;;;5062178;28;20493;-71
2023/01/10 11:54:31;;;;;;;21.00;15.90;;;9.70;99.90;;;;;;5062463;28;20485;-71
2023/01/10 11:57:04;;;;;;;18.50;16.60;;;9.80;99.90;;;;;;5069221;28;20462;-71
2023/01/10 11:59:31;;;;;;;20.80;16.83;;;9.80;99.90;;;;;;5059261;28;20532;-71
2023/01/10 12:02:03;;;;;;;21.77;16.53;;;9.80;99.90;;;;;;5065620;28;20471;-71
2023/01/10 12:04:33;;;;;;;24.53;18.40;;;10.00;99.90;;;;;;5057597;28;20458;-71
2023/01/10 12:07:04;;;;;;;19.30;16.60;;;10.10;99.90;;;;;;5067969;28;20467;-71
2023/01/10 12:09:34;;;;;;;18.87;16.20;;;10.00;99.90;;;;;;5066523;28;20982;-71
2023/01/10 12:12:04;;;;;;;20.77;16.60;;;9.90;99.90;;;;;;5066902;28;20833;-71
2023/01/10 12:14:31;;;;;;;25.17;16.40;;;9.90;99.90;;;;;;5059028;28;20451;-71
2023/01/10 12:17:03;;;;;;;25.00;16.50;;;10.00;99.90;;;;;;5059883;28;20520;-71
2023/01/10 12:19:30;;;;;;;17.20;15.77;;;10.00;99.90;;;;;;5061357;28;20454;-71
2023/01/10 12:22:02;;;;;;;17.50;16.20;;;10.00;99.90;;;;;;5064711;28;20480;-71
2023/01/10 12:24:34;;;;;;;19.63;17.20;;;10.00;99.90;;;;;;5064954;28;20984;-71
2023/01/10 12:27:04;;;;;;;31.20;17.00;;;10.00;99.90;;;;;;5062052;28;20496;-71
2023/01/10 12:29:35;;;;;;;19.70;16.40;;;10.00;99.90;;;;;;5060494;28;20489;-69
2023/01/10 12:32:06;;;;;;;18.53;16.60;;;10.00;99.90;;;;;;5062620;28;20462;-70
2023/01/10 12:34:41;;;;;;;20.67;16.60;;;9.80;99.90;;;;;;5066211;28;20489;-70
2023/01/10 12:37:17;;;;;;;21.63;16.97;;;9.90;99.90;;;;;;5065555;28;20524;-70
2023/01/10 12:39:47;;;;;;;18.23;16.40;;;9.90;99.90;;;;;;5060890;28;21407;-71
2023/01/10 12:45:20;;;;;;;18.23;16.30;;;10.00;99.90;;;;;;5063252;28;20645;-71
2023/01/10 12:47:59;;;;;;;24.40;16.10;;;10.00;99.90;;;;;;5059608;28;20504;-70
2023/01/10 12:50:31;;;;;;;22.40;18.00;;;10.10;99.90;;;;;;5054429;28;20527;-70
2023/01/10 12:53:03;;;;;;;17.03;15.73;;;10.10;99.90;;;;;;5056195;28;20467;-72
2023/01/10 12:55:34;;;;;;;17.87;16.30;;;10.10;99.90;;;;;;5065195;28;20941;-74
2023/01/10 12:58:05;;;;;;;21.03;16.73;;;10.00;99.90;;;;;;5058187;28;20869;-72
2023/01/10 13:00:37;;;;;;;18.30;16.37;;;10.10;99.90;;;;;;5060573;28;21002;-72
2023/01/10 13:03:10;;;;;;;24.07;16.67;;;10.00;99.90;;;;;;5065107;28;20968;-71
2023/01/10 13:05:37;;;;;;;16.47;14.97;;;9.90;99.90;;;;;;5072626;28;20473;-73